sensor_id;sensor_type;location;lat;lon;timestamp;temperature;humidity
6307;DHT22;3186;54.062;9.962;2022-11-25T00:00:25;4.50;99.90
6307;DHT22;3186;54.062;9.962;2022-11-25T00:02:51;4.50;99.90
6307;DHT22;3186;54.062;9.962;2022-11-25T00:05:17;4.50;99.90
6307;DHT22;3186;54.062;9.962;2022-11-25T00:07:43;4.50;99.90
6307;DHT22;3186;54.062;9.962;2022-11-25T00:10:09;4.50;99.90
6307;DHT22;3186;54.062;9.962;2022-11-25T00:12:35;4.40;99.90
6307;DHT22;3186;54.062;9.962;2022-11-25T00:15:00;4.40;99.90
6307;DHT22;3186;54.062;9.962;2022-11-25T00:17:26;4.40;99.90
6307;DHT22;3186;54.062;9.962;2022-11-25T00:19:52;4.40;99.90
6307;DHT22;3186;54.062;9.962;2022-11-25T00:22:18;4.40;99.90
6307;DHT22;3186;54.062;9.962;2022-11-25T00:24:43;4.40;99.90
6307;DHT22;3186;54.062;9.962;2022-11-25T00:27:09;4.40;99.90
6307;DHT22;3186;54.062;9.962;2022-11-25T00:29:37;4.40;99.90
6307;DHT22;3186;54.062;9.962;2022-11-25T00:32:03;4.30;99.90
6307;DHT22;3186;54.062;9.962;2022-11-25T00:34:31;4.30;99.90
6307;DHT22;3186;54.062;9.962;2022-11-25T00:36:57;4.30;99.90
6307;DHT22;3186;54.062;9.962;2022-11-25T00:39:23;4.30;99.90
6307;DHT22;3186;54.062;9.962;2022-11-25T00:41:50;4.30;99.90
6307;DHT22;3186;54.062;9.962;2022-11-25T00:44:34;4.30;99.90
6307;DHT22;3186;54.062;9.962;2022-11-25T00:47:01;4.30;99.90
6307;DHT22;3186;54.062;9.962;2022-11-25T00:49:27;4.20;99.90
6307;DHT22;3186;54.062;9.962;2022-11-25T00:51:54;4.00;99.90
6307;DHT22;3186;54.062;9.962;2022-11-25T00:54:20;4.20;99.90
6307;DHT22;3186;54.062;9.962;2022-11-25T00:56:46;4.20;99.90
6307;DHT22;3186;54.062;9.962;2022-11-25T00:59:11;4.20;99.90
6307;DHT22;3186;54.062;9.962;2022-11-25T01:01:37;4.20;99.90
6307;DHT22;3186;54.062;9.962;2022-11-25T01:04:04;4.20;99.90
6307;DHT22;3186;54.062;9.962;2022-11-25T01:06:32;4.20;99.90
6307;DHT22;3186;54.062;9.962;2022-11-25T01:08:58;4.20;99.90
6307;DHT22;3186;54.062;9.962;2022-11-25T01:11:24;4.20;99.90
6307;DHT22;3186;54.062;9.962;2022-11-25T01:13:50;4.20;99.90
6307;DHT22;3186;54.062;9.962;2022-11-25T01:16:20;4.20;99.90
6307;DHT22;3186;54.062;9.962;2022-11-25T01:18:46;4.20;99.90
6307;DHT22;3186;54.062;9.962;2022-11-25T01:21:15;4.20;99.90
6307;DHT22;3186;54.062;9.962;2022-11-25T01:23:41;4.10;99.90
6307;DHT22;3186;54.062;9.962;2022-11-25T01:26:11;4.10;99.90
6307;DHT22;3186;54.062;9.962;2022-11-25T01:28:38;4.10;99.90
6307;DHT22;3186;54.062;9.962;2022-11-25T01:31:05;4.20;99.90
6307;DHT22;3186;54.062;9.962;2022-11-25T01:33:33;4.20;99.90
6307;DHT22;3186;54.062;9.962;2022-11-25T01:36:01;4.10;99.90
6307;DHT22;3186;54.062;9.962;2022-11-25T01:38:28;4.10;99.90
6307;DHT22;3186;54.062;9.962;2022-11-25T01:40:53;4.10;99.90
6307;DHT22;3186;54.062;9.962;2022-11-25T01:43:19;4.10;99.90
6307;DHT22;3186;54.062;9.962;2022-11-25T01:45:45;4.10;99.90
6307;DHT22;3186;54.062;9.962;2022-11-25T01:51:25;4.10;99.90
6307;DHT22;3186;54.062;9.962;2022-11-25T01:53:57;4.10;99.90
6307;DHT22;3186;54.062;9.962;2022-11-25T01:56:25;4.10;99.90
6307;DHT22;3186;54.062;9.962;2022-11-25T01:58:52;4.20;99.90
6307;DHT22;3186;54.062;9.962;2022-11-25T02:01:19;4.10;99.90
6307;DHT22;3186;54.062;9.962;2022-11-25T02:03:48;4.10;99.90
6307;DHT22;3186;54.062;9.962;2022-11-25T02:06:28;4.10;99.90
6307;DHT22;3186;54.062;9.962;2022-11-25T02:09:00;4.10;99.90
6307;DHT22;3186;54.062;9.962;2022-11-25T02:11:28;4.10;99.90
6307;DHT22;3186;54.062;9.962;2022-11-25T02:13:55;4.10;99.90
6307;DHT22;3186;54.062;9.962;2022-11-25T02:16:22;4.10;99.90
6307;DHT22;3186;54.062;9.962;2022-11-25T02:18:49;4.10;99.90
6307;DHT22;3186;54.062;9.962;2022-11-25T02:21:20;4.10;99.90
6307;DHT22;3186;54.062;9.962;2022-11-25T02:23:54;4.10;99.90
6307;DHT22;3186;54.062;9.962;2022-11-25T02:26:23;4.10;99.90
6307;DHT22;3186;54.062;9.962;2022-11-25T02:28:49;4.10;99.90
6307;DHT22;3186;54.062;9.962;2022-11-25T02:31:20;4.10;99.90
6307;DHT22;3186;54.062;9.962;2022-11-25T02:33:46;4.10;99.90
6307;DHT22;3186;54.062;9.962;2022-11-25T02:36:16;4.10;99.90
6307;DHT22;3186;54.062;9.962;2022-11-25T02:38:49;4.00;99.90
6307;DHT22;3186;54.062;9.962;2022-11-25T02:41:21;4.00;99.90
6307;DHT22;3186;54.062;9.962;2022-11-25T02:43:54;4.00;99.90
6307;DHT22;3186;54.062;9.962;2022-11-25T02:46:23;4.00;99.90
6307;DHT22;3186;54.062;9.962;2022-11-25T02:48:51;4.00;99.90
6307;DHT22;3186;54.062;9.962;2022-11-25T02:51:20;4.00;99.90
6307;DHT22;3186;54.062;9.962;2022-11-25T02:53:46;4.00;99.90
6307;DHT22;3186;54.062;9.962;2022-11-25T02:56:13;4.00;99.90
6307;DHT22;3186;54.062;9.962;2022-11-25T02:58:39;3.90;99.90
6307;DHT22;3186;54.062;9.962;2022-11-25T03:01:07;4.00;99.90
6307;DHT22;3186;54.062;9.962;2022-11-25T03:03:34;3.90;99.90
6307;DHT22;3186;54.062;9.962;2022-11-25T03:06:00;3.90;99.90
6307;DHT22;3186;54.062;9.962;2022-11-25T03:08:26;3.90;99.90
6307;DHT22;3186;54.062;9.962;2022-11-25T03:10:52;3.90;99.90
6307;DHT22;3186;54.062;9.962;2022-11-25T03:13:19;3.90;99.90
6307;DHT22;3186;54.062;9.962;2022-11-25T03:15:45;3.90;99.90
6307;DHT22;3186;54.062;9.962;2022-11-25T03:18:11;3.90;99.90
6307;DHT22;3186;54.062;9.962;2022-11-25T03:20:37;3.90;99.90
6307;DHT22;3186;54.062;9.962;2022-11-25T03:23:04;3.90;99.90
6307;DHT22;3186;54.062;9.962;2022-11-25T03:25:30;3.80;99.90
6307;DHT22;3186;54.062;9.962;2022-11-25T03:27:56;3.80;99.90
6307;DHT22;3186;54.062;9.962;2022-11-25T03:30:25;3.80;99.90
6307;DHT22;3186;54.062;9.962;2022-11-25T03:32:55;3.80;99.90
6307;DHT22;3186;54.062;9.962;2022-11-25T03:35:23;3.80;99.90
6307;DHT22;3186;54.062;9.962;2022-11-25T03:37:49;3.70;99.90
6307;DHT22;3186;54.062;9.962;2022-11-25T03:40:15;3.70;99.90
6307;DHT22;3186;54.062;9.962;2022-11-25T03:42:43;3.70;99.90
6307;DHT22;3186;54.062;9.962;2022-11-25T03:45:10;3.70;99.90
6307;DHT22;3186;54.062;9.962;2022-11-25T03:47:39;3.70;99.90
6307;DHT22;3186;54.062;9.962;2022-11-25T03:50:06;3.60;99.90
6307;DHT22;3186;54.062;9.962;2022-11-25T03:52:32;3.60;99.90
6307;DHT22;3186;54.062;9.962;2022-11-25T03:54:58;3.60;99.90
6307;DHT22;3186;54.062;9.962;2022-11-25T03:57:28;3.60;99.90
6307;DHT22;3186;54.062;9.962;2022-11-25T03:59:54;3.60;99.90
6307;DHT22;3186;54.062;9.962;2022-11-25T04:02:20;3.60;99.90
6307;DHT22;3186;54.062;9.962;2022-11-25T04:04:48;3.50;99.90
6307;DHT22;3186;54.062;9.962;2022-11-25T04:07:16;3.50;99.90
6307;DHT22;3186;54.062;9.962;2022-11-25T04:09:42;3.50;99.90
6307;DHT22;3186;54.062;9.962;2022-11-25T04:12:09;3.50;99.90
6307;DHT22;3186;54.062;9.962;2022-11-25T04:15:03;3.40;99.90
6307;DHT22;3186;54.062;9.962;2022-11-25T04:17:29;3.50;99.90
6307;DHT22;3186;54.062;9.962;2022-11-25T04:19:55;3.40;99.90
6307;DHT22;3186;54.062;9.962;2022-11-25T04:22:22;3.40;99.90
6307;DHT22;3186;54.062;9.962;2022-11-25T04:24:49;3.40;99.90
6307;DHT22;3186;54.062;9.962;2022-11-25T04:27:20;3.40;99.90
6307;DHT22;3186;54.062;9.962;2022-11-25T04:29:46;3.40;99.90
6307;DHT22;3186;54.062;9.962;2022-11-25T04:32:14;3.40;99.90
6307;DHT22;3186;54.062;9.962;2022-11-25T04:34:40;3.40;99.90
6307;DHT22;3186;54.062;9.962;2022-11-25T04:37:07;3.40;99.90
6307;DHT22;3186;54.062;9.962;2022-11-25T04:39:34;3.30;99.90
6307;DHT22;3186;54.062;9.962;2022-11-25T04:42:07;3.30;99.90
6307;DHT22;3186;54.062;9.962;2022-11-25T04:44:52;3.30;99.90
6307;DHT22;3186;54.062;9.962;2022-11-25T04:47:17;3.30;99.90
6307;DHT22;3186;54.062;9.962;2022-11-25T04:49:44;3.30;99.90
6307;DHT22;3186;54.062;9.962;2022-11-25T04:52:10;3.30;99.90
6307;DHT22;3186;54.062;9.962;2022-11-25T04:54:36;3.30;99.90
6307;DHT22;3186;54.062;9.962;2022-11-25T04:57:03;3.30;99.90
6307;DHT22;3186;54.062;9.962;2022-11-25T04:59:28;3.30;99.90
6307;DHT22;3186;54.062;9.962;2022-11-25T05:02:28;3.30;99.90
6307;DHT22;3186;54.062;9.962;2022-11-25T05:05:08;3.30;99.90
6307;DHT22;3186;54.062;9.962;2022-11-25T05:07:34;3.30;99.90
6307;DHT22;3186;54.062;9.962;2022-11-25T05:10:00;3.30;99.90
6307;DHT22;3186;54.062;9.962;2022-11-25T05:12:37;3.30;99.90
6307;DHT22;3186;54.062;9.962;2022-11-25T05:15:07;3.30;99.90
6307;DHT22;3186;54.062;9.962;2022-11-25T05:17:36;3.30;99.90
6307;DHT22;3186;54.062;9.962;2022-11-25T05:20:04;3.30;99.90
6307;DHT22;3186;54.062;9.962;2022-11-25T05:22:32;3.30;99.90
6307;DHT22;3186;54.062;9.962;2022-11-25T05:24:58;3.30;99.90
6307;DHT22;3186;54.062;9.962;2022-11-25T05:27:26;3.30;99.90
6307;DHT22;3186;54.062;9.962;2022-11-25T05:29:53;3.30;99.90
6307;DHT22;3186;54.062;9.962;2022-11-25T05:32:19;3.20;99.90
6307;DHT22;3186;54.062;9.962;2022-11-25T05:34:44;3.30;99.90
6307;DHT22;3186;54.062;9.962;2022-11-25T05:37:13;3.30;99.90
6307;DHT22;3186;54.062;9.962;2022-11-25T05:39:44;3.20;99.90
6307;DHT22;3186;54.062;9.962;2022-11-25T05:42:39;3.20;99.90
6307;DHT22;3186;54.062;9.962;2022-11-25T05:45:07;3.20;99.90
6307;DHT22;3186;54.062;9.962;2022-11-25T05:47:34;3.20;99.90
6307;DHT22;3186;54.062;9.962;2022-11-25T05:50:00;3.20;99.90
6307;DHT22;3186;54.062;9.962;2022-11-25T05:52:25;3.10;99.90
6307;DHT22;3186;54.062;9.962;2022-11-25T05:54:56;3.10;99.90
6307;DHT22;3186;54.062;9.962;2022-11-25T05:57:22;3.10;99.90
6307;DHT22;3186;54.062;9.962;2022-11-25T05:59:52;3.10;99.90
6307;DHT22;3186;54.062;9.962;2022-11-25T06:02:22;3.10;99.90
6307;DHT22;3186;54.062;9.962;2022-11-25T06:04:49;3.10;99.90
6307;DHT22;3186;54.062;9.962;2022-11-25T06:07:15;3.10;99.90
6307;DHT22;3186;54.062;9.962;2022-11-25T06:09:41;3.10;99.90
6307;DHT22;3186;54.062;9.962;2022-11-25T06:12:07;3.10;99.90
6307;DHT22;3186;54.062;9.962;2022-11-25T06:14:38;3.10;99.90
6307;DHT22;3186;54.062;9.962;2022-11-25T06:17:04;3.10;99.90
6307;DHT22;3186;54.062;9.962;2022-11-25T06:19:40;3.20;99.90
6307;DHT22;3186;54.062;9.962;2022-11-25T06:22:07;3.20;99.90
6307;DHT22;3186;54.062;9.962;2022-11-25T06:24:33;3.20;99.90
6307;DHT22;3186;54.062;9.962;2022-11-25T06:27:04;3.30;99.90
6307;DHT22;3186;54.062;9.962;2022-11-25T06:29:31;3.30;99.90
6307;DHT22;3186;54.062;9.962;2022-11-25T06:31:58;3.30;99.90
6307;DHT22;3186;54.062;9.962;2022-11-25T06:34:37;3.30;99.90
6307;DHT22;3186;54.062;9.962;2022-11-25T06:37:11;3.30;99.90
6307;DHT22;3186;54.062;9.962;2022-11-25T06:39:36;3.30;99.90
6307;DHT22;3186;54.062;9.962;2022-11-25T06:42:02;3.30;99.90
6307;DHT22;3186;54.062;9.962;2022-11-25T06:44:28;3.30;99.90
6307;DHT22;3186;54.062;9.962;2022-11-25T06:46:54;3.30;99.90
6307;DHT22;3186;54.062;9.962;2022-11-25T06:49:20;3.30;99.90
6307;DHT22;3186;54.062;9.962;2022-11-25T06:51:48;3.30;99.90
6307;DHT22;3186;54.062;9.962;2022-11-25T06:54:14;3.40;99.90
6307;DHT22;3186;54.062;9.962;2022-11-25T06:56:40;3.40;99.90
6307;DHT22;3186;54.062;9.962;2022-11-25T06:59:06;3.40;99.90
6307;DHT22;3186;54.062;9.962;2022-11-25T07:01:32;3.40;99.90
6307;DHT22;3186;54.062;9.962;2022-11-25T07:04:03;4.90;99.90
6307;DHT22;3186;54.062;9.962;2022-11-25T07:06:30;3.40;99.90
6307;DHT22;3186;54.062;9.962;2022-11-25T07:08:56;3.40;99.90
6307;DHT22;3186;54.062;9.962;2022-11-25T07:11:28;3.40;99.90
6307;DHT22;3186;54.062;9.962;2022-11-25T07:13:57;3.50;99.90
6307;DHT22;3186;54.062;9.962;2022-11-25T07:16:23;3.40;99.90
6307;DHT22;3186;54.062;9.962;2022-11-25T07:18:49;3.50;99.90
6307;DHT22;3186;54.062;9.962;2022-11-25T07:21:18;3.50;99.90
6307;DHT22;3186;54.062;9.962;2022-11-25T07:23:45;3.50;99.90
6307;DHT22;3186;54.062;9.962;2022-11-25T07:26:13;3.50;99.90
6307;DHT22;3186;54.062;9.962;2022-11-25T07:28:39;3.50;99.90
6307;DHT22;3186;54.062;9.962;2022-11-25T07:31:20;3.50;99.90
6307;DHT22;3186;54.062;9.962;2022-11-25T07:33:47;3.50;99.90
6307;DHT22;3186;54.062;9.962;2022-11-25T07:36:13;3.50;99.90
6307;DHT22;3186;54.062;9.962;2022-11-25T07:38:40;3.50;99.90
6307;DHT22;3186;54.062;9.962;2022-11-25T07:41:14;5.00;99.90
6307;DHT22;3186;54.062;9.962;2022-11-25T07:43:44;3.50;99.90
6307;DHT22;3186;54.062;9.962;2022-11-25T07:48:40;3.50;99.90
6307;DHT22;3186;54.062;9.962;2022-11-25T07:51:22;3.60;99.90
6307;DHT22;3186;54.062;9.962;2022-11-25T07:53:49;3.60;99.90
6307;DHT22;3186;54.062;9.962;2022-11-25T07:56:16;3.60;99.90
6307;DHT22;3186;54.062;9.962;2022-11-25T07:58:43;3.70;99.90
6307;DHT22;3186;54.062;9.962;2022-11-25T08:01:10;3.80;99.90
6307;DHT22;3186;54.062;9.962;2022-11-25T08:03:38;3.80;99.90
6307;DHT22;3186;54.062;9.962;2022-11-25T08:06:07;3.90;99.90
6307;DHT22;3186;54.062;9.962;2022-11-25T08:08:34;3.90;99.90
6307;DHT22;3186;54.062;9.962;2022-11-25T08:11:00;3.90;99.90
6307;DHT22;3186;54.062;9.962;2022-11-25T08:13:26;3.90;99.90
6307;DHT22;3186;54.062;9.962;2022-11-25T08:15:52;4.10;99.90
6307;DHT22;3186;54.062;9.962;2022-11-25T08:18:18;4.10;99.90
6307;DHT22;3186;54.062;9.962;2022-11-25T08:20:44;4.10;99.90
6307;DHT22;3186;54.062;9.962;2022-11-25T08:23:09;4.10;99.90
6307;DHT22;3186;54.062;9.962;2022-11-25T08:25:39;4.10;99.90
6307;DHT22;3186;54.062;9.962;2022-11-25T08:28:06;4.20;99.90
6307;DHT22;3186;54.062;9.962;2022-11-25T08:30:32;4.30;99.90
6307;DHT22;3186;54.062;9.962;2022-11-25T08:32:58;4.20;99.90
6307;DHT22;3186;54.062;9.962;2022-11-25T08:35:24;4.30;99.90
6307;DHT22;3186;54.062;9.962;2022-11-25T08:37:50;4.40;99.90
6307;DHT22;3186;54.062;9.962;2022-11-25T08:40:16;4.50;99.90
6307;DHT22;3186;54.062;9.962;2022-11-25T08:42:42;4.50;99.90
6307;DHT22;3186;54.062;9.962;2022-11-25T08:45:08;4.50;99.90
6307;DHT22;3186;54.062;9.962;2022-11-25T08:47:35;4.50;99.90
6307;DHT22;3186;54.062;9.962;2022-11-25T08:50:06;4.50;99.90
6307;DHT22;3186;54.062;9.962;2022-11-25T08:52:32;4.60;99.90
6307;DHT22;3186;54.062;9.962;2022-11-25T08:54:58;4.50;99.90
6307;DHT22;3186;54.062;9.962;2022-11-25T08:57:24;4.60;99.90
6307;DHT22;3186;54.062;9.962;2022-11-25T08:59:49;4.60;99.90
6307;DHT22;3186;54.062;9.962;2022-11-25T09:02:16;4.70;99.90
6307;DHT22;3186;54.062;9.962;2022-11-25T09:04:42;4.70;99.90
6307;DHT22;3186;54.062;9.962;2022-11-25T09:07:08;4.70;99.90
6307;DHT22;3186;54.062;9.962;2022-11-25T09:09:34;4.70;99.90
6307;DHT22;3186;54.062;9.962;2022-11-25T09:12:00;4.80;99.90
6307;DHT22;3186;54.062;9.962;2022-11-25T09:14:26;4.90;99.90
6307;DHT22;3186;54.062;9.962;2022-11-25T09:16:51;5.00;99.90
6307;DHT22;3186;54.062;9.962;2022-11-25T09:19:19;5.20;99.90
6307;DHT22;3186;54.062;9.962;2022-11-25T09:21:45;5.10;99.90
6307;DHT22;3186;54.062;9.962;2022-11-25T09:24:11;5.10;99.90
6307;DHT22;3186;54.062;9.962;2022-11-25T09:26:36;5.20;99.90
6307;DHT22;3186;54.062;9.962;2022-11-25T09:29:06;5.20;99.90
6307;DHT22;3186;54.062;9.962;2022-11-25T09:31:32;5.20;99.90
6307;DHT22;3186;54.062;9.962;2022-11-25T09:33:58;5.20;99.90
6307;DHT22;3186;54.062;9.962;2022-11-25T09:36:24;5.20;99.90
6307;DHT22;3186;54.062;9.962;2022-11-25T09:38:50;5.30;99.90
6307;DHT22;3186;54.062;9.962;2022-11-25T09:55:46;5.40;99.90
6307;DHT22;3186;54.062;9.962;2022-11-25T10:00:49;5.40;99.90
6307;DHT22;3186;54.062;9.962;2022-11-25T10:06:15;5.40;99.90
6307;DHT22;3186;54.062;9.962;2022-11-25T10:09:14;5.40;99.90
6307;DHT22;3186;54.062;9.962;2022-11-25T10:11:53;5.40;99.90
6307;DHT22;3186;54.062;9.962;2022-11-25T10:14:34;5.40;99.90
6307;DHT22;3186;54.062;9.962;2022-11-25T10:24:39;5.50;99.90
6307;DHT22;3186;54.062;9.962;2022-11-25T10:27:06;5.50;99.90
6307;DHT22;3186;54.062;9.962;2022-11-25T10:29:39;5.50;99.90
6307;DHT22;3186;54.062;9.962;2022-11-25T10:32:28;5.40;99.90
6307;DHT22;3186;54.062;9.962;2022-11-25T10:34:59;5.50;99.90
6307;DHT22;3186;54.062;9.962;2022-11-25T10:37:34;5.60;99.90
6307;DHT22;3186;54.062;9.962;2022-11-25T10:40:03;5.60;99.90
6307;DHT22;3186;54.062;9.962;2022-11-25T10:42:29;5.50;99.90
6307;DHT22;3186;54.062;9.962;2022-11-25T10:44:57;5.50;99.90
6307;DHT22;3186;54.062;9.962;2022-11-25T10:52:28;5.60;99.90
6307;DHT22;3186;54.062;9.962;2022-11-25T10:55:15;5.60;99.90
6307;DHT22;3186;54.062;9.962;2022-11-25T10:57:43;5.70;99.90
6307;DHT22;3186;54.062;9.962;2022-11-25T11:00:35;5.70;99.90
6307;DHT22;3186;54.062;9.962;2022-11-25T11:03:15;5.70;99.90
6307;DHT22;3186;54.062;9.962;2022-11-25T11:05:47;5.70;99.90
6307;DHT22;3186;54.062;9.962;2022-11-25T11:13:38;5.90;99.90
6307;DHT22;3186;54.062;9.962;2022-11-25T11:16:20;5.90;99.90
6307;DHT22;3186;54.062;9.962;2022-11-25T11:18:48;6.00;99.90
6307;DHT22;3186;54.062;9.962;2022-11-25T11:21:27;6.10;99.90
6307;DHT22;3186;54.062;9.962;2022-11-25T11:23:54;6.10;99.90
6307;DHT22;3186;54.062;9.962;2022-11-25T11:28:47;6.10;99.90
6307;DHT22;3186;54.062;9.962;2022-11-25T11:31:22;6.10;99.90
6307;DHT22;3186;54.062;9.962;2022-11-25T11:50:42;6.20;99.90
6307;DHT22;3186;54.062;9.962;2022-11-25T12:01:11;6.40;99.90
6307;DHT22;3186;54.062;9.962;2022-11-25T12:03:38;6.40;99.90
6307;DHT22;3186;54.062;9.962;2022-11-25T12:06:09;6.50;99.90
6307;DHT22;3186;54.062;9.962;2022-11-25T12:08:54;6.50;99.90
6307;DHT22;3186;54.062;9.962;2022-11-25T12:11:31;6.50;99.90
6307;DHT22;3186;54.062;9.962;2022-11-25T12:14:05;6.50;99.90
6307;DHT22;3186;54.062;9.962;2022-11-25T12:19:13;6.50;99.90
6307;DHT22;3186;54.062;9.962;2022-11-25T12:22:02;6.60;99.90
6307;DHT22;3186;54.062;9.962;2022-11-25T12:27:23;6.60;99.90
6307;DHT22;3186;54.062;9.962;2022-11-25T12:30:02;6.70;99.90
6307;DHT22;3186;54.062;9.962;2022-11-25T12:37:43;6.80;99.90
6307;DHT22;3186;54.062;9.962;2022-11-25T12:45:34;6.80;99.90
6307;DHT22;3186;54.062;9.962;2022-11-25T12:48:00;6.80;99.90
6307;DHT22;3186;54.062;9.962;2022-11-25T12:53:25;7.00;99.90
6307;DHT22;3186;54.062;9.962;2022-11-25T12:55:53;7.00;99.90
6307;DHT22;3186;54.062;9.962;2022-11-25T13:16:53;7.20;99.90
6307;DHT22;3186;54.062;9.962;2022-11-25T13:19:22;7.30;99.90
6307;DHT22;3186;54.062;9.962;2022-11-25T13:24:43;7.30;99.90
6307;DHT22;3186;54.062;9.962;2022-11-25T13:27:31;7.30;99.90
6307;DHT22;3186;54.062;9.962;2022-11-25T13:29:59;7.30;99.90
6307;DHT22;3186;54.062;9.962;2022-11-25T13:32:36;7.30;99.90
6307;DHT22;3186;54.062;9.962;2022-11-25T13:37:48;7.30;99.90
6307;DHT22;3186;54.062;9.962;2022-11-25T13:42:55;7.30;99.90
6307;DHT22;3186;54.062;9.962;2022-11-25T13:45:37;7.40;99.90
6307;DHT22;3186;54.062;9.962;2022-11-25T13:48:27;7.40;99.90
6307;DHT22;3186;54.062;9.962;2022-11-25T13:51:18;7.40;99.90
6307;DHT22;3186;54.062;9.962;2022-11-25T13:54:04;7.40;99.90
6307;DHT22;3186;54.062;9.962;2022-11-25T13:56:33;7.40;99.90
6307;DHT22;3186;54.062;9.962;2022-11-25T14:04:13;7.40;99.90
6307;DHT22;3186;54.062;9.962;2022-11-25T14:21:02;7.60;99.90
6307;DHT22;3186;54.062;9.962;2022-11-25T14:26:12;7.70;99.90
6307;DHT22;3186;54.062;9.962;2022-11-25T14:31:43;7.70;99.90
6307;DHT22;3186;54.062;9.962;2022-11-25T14:34:16;7.70;99.90
6307;DHT22;3186;54.062;9.962;2022-11-25T14:36:48;7.70;99.90
6307;DHT22;3186;54.062;9.962;2022-11-25T14:39:32;7.70;99.90
6307;DHT22;3186;54.062;9.962;2022-11-25T14:42:07;7.70;99.90
6307;DHT22;3186;54.062;9.962;2022-11-25T14:44:49;7.70;99.90
6307;DHT22;3186;54.062;9.962;2022-11-25T14:47:38;7.70;99.90
6307;DHT22;3186;54.062;9.962;2022-11-25T14:50:04;7.70;99.90
6307;DHT22;3186;54.062;9.962;2022-11-25T14:52:36;7.60;99.90
6307;DHT22;3186;54.062;9.962;2022-11-25T14:55:04;7.70;99.90
6307;DHT22;3186;54.062;9.962;2022-11-25T14:57:38;7.60;99.90
6307;DHT22;3186;54.062;9.962;2022-11-25T15:00:13;7.60;99.90
6307;DHT22;3186;54.062;9.962;2022-11-25T15:03:13;7.60;99.90
6307;DHT22;3186;54.062;9.962;2022-11-25T15:05:42;7.60;99.90
6307;DHT22;3186;54.062;9.962;2022-11-25T15:08:13;7.70;99.90
6307;DHT22;3186;54.062;9.962;2022-11-25T15:15:49;7.70;99.90
6307;DHT22;3186;54.062;9.962;2022-11-25T15:18:20;7.70;99.90
6307;DHT22;3186;54.062;9.962;2022-11-25T15:20:56;7.70;99.90
6307;DHT22;3186;54.062;9.962;2022-11-25T15:23:30;7.70;99.90
6307;DHT22;3186;54.062;9.962;2022-11-25T15:26:00;7.70;99.90
6307;DHT22;3186;54.062;9.962;2022-11-25T15:28:36;7.80;99.90
6307;DHT22;3186;54.062;9.962;2022-11-25T15:31:13;7.70;99.90
6307;DHT22;3186;54.062;9.962;2022-11-25T15:33:41;7.80;99.90
6307;DHT22;3186;54.062;9.962;2022-11-25T15:36:08;7.80;99.90
6307;DHT22;3186;54.062;9.962;2022-11-25T15:38:43;7.80;99.90
6307;DHT22;3186;54.062;9.962;2022-11-25T15:43:53;7.80;99.90
6307;DHT22;3186;54.062;9.962;2022-11-25T15:46:20;7.80;99.90
6307;DHT22;3186;54.062;9.962;2022-11-25T15:48:47;7.80;99.90
6307;DHT22;3186;54.062;9.962;2022-11-25T15:51:34;7.80;99.90
6307;DHT22;3186;54.062;9.962;2022-11-25T15:54:06;7.80;99.90
6307;DHT22;3186;54.062;9.962;2022-11-25T15:56:49;7.80;99.90
6307;DHT22;3186;54.062;9.962;2022-11-25T15:59:44;7.80;99.90
6307;DHT22;3186;54.062;9.962;2022-11-25T16:21:20;7.80;99.90
6307;DHT22;3186;54.062;9.962;2022-11-25T16:23:52;7.80;99.90
6307;DHT22;3186;54.062;9.962;2022-11-25T16:26:29;7.80;99.90
6307;DHT22;3186;54.062;9.962;2022-11-25T16:28:57;7.80;99.90
6307;DHT22;3186;54.062;9.962;2022-11-25T16:31:24;7.80;99.90
6307;DHT22;3186;54.062;9.962;2022-11-25T16:33:57;7.80;99.90
6307;DHT22;3186;54.062;9.962;2022-11-25T16:36:24;7.80;99.90
6307;DHT22;3186;54.062;9.962;2022-11-25T16:38:51;7.90;99.90
6307;DHT22;3186;54.062;9.962;2022-11-25T16:41:24;7.80;99.90
6307;DHT22;3186;54.062;9.962;2022-11-25T16:43:50;7.80;99.90
6307;DHT22;3186;54.062;9.962;2022-11-25T16:46:17;7.90;99.90
6307;DHT22;3186;54.062;9.962;2022-11-25T16:48:44;7.80;99.90
6307;DHT22;3186;54.062;9.962;2022-11-25T16:51:17;7.80;99.90
6307;DHT22;3186;54.062;9.962;2022-11-25T16:53:43;7.80;99.90
6307;DHT22;3186;54.062;9.962;2022-11-25T16:56:36;7.80;99.90
6307;DHT22;3186;54.062;9.962;2022-11-25T16:59:03;7.80;99.90
6307;DHT22;3186;54.062;9.962;2022-11-25T17:01:30;7.80;99.90
6307;DHT22;3186;54.062;9.962;2022-11-25T17:03:57;7.80;99.90
6307;DHT22;3186;54.062;9.962;2022-11-25T17:06:25;7.70;99.90
6307;DHT22;3186;54.062;9.962;2022-11-25T17:08:52;7.80;99.90
6307;DHT22;3186;54.062;9.962;2022-11-25T17:13:52;7.80;99.90
6307;DHT22;3186;54.062;9.962;2022-11-25T17:16:21;7.80;99.90
6307;DHT22;3186;54.062;9.962;2022-11-25T17:18:48;7.80;99.90
6307;DHT22;3186;54.062;9.962;2022-11-25T17:21:15;7.80;99.90
6307;DHT22;3186;54.062;9.962;2022-11-25T17:23:42;7.80;99.90
6307;DHT22;3186;54.062;9.962;2022-11-25T17:26:35;7.80;99.90
6307;DHT22;3186;54.062;9.962;2022-11-25T17:29:04;7.80;99.90
6307;DHT22;3186;54.062;9.962;2022-11-25T17:31:32;7.80;99.90
6307;DHT22;3186;54.062;9.962;2022-11-25T17:33:58;7.90;99.90
6307;DHT22;3186;54.062;9.962;2022-11-25T17:36:24;7.80;99.90
6307;DHT22;3186;54.062;9.962;2022-11-25T17:38:51;7.80;99.90
6307;DHT22;3186;54.062;9.962;2022-11-25T17:41:22;7.80;99.90
6307;DHT22;3186;54.062;9.962;2022-11-25T17:43:49;7.80;99.90
6307;DHT22;3186;54.062;9.962;2022-11-25T17:46:17;7.80;99.90
6307;DHT22;3186;54.062;9.962;2022-11-25T17:48:43;7.80;99.90
6307;DHT22;3186;54.062;9.962;2022-11-25T17:51:11;7.80;99.90
6307;DHT22;3186;54.062;9.962;2022-11-25T17:53:38;7.80;99.90
6307;DHT22;3186;54.062;9.962;2022-11-25T17:56:27;7.80;99.90
6307;DHT22;3186;54.062;9.962;2022-11-25T17:58:53;7.90;99.90
6307;DHT22;3186;54.062;9.962;2022-11-25T18:01:21;7.80;99.90
6307;DHT22;3186;54.062;9.962;2022-11-25T18:03:46;7.90;99.90
6307;DHT22;3186;54.062;9.962;2022-11-25T18:06:17;7.80;99.90
6307;DHT22;3186;54.062;9.962;2022-11-25T18:08:43;7.80;99.90
6307;DHT22;3186;54.062;9.962;2022-11-25T18:11:14;7.80;99.90
6307;DHT22;3186;54.062;9.962;2022-11-25T18:13:40;7.80;99.90
6307;DHT22;3186;54.062;9.962;2022-11-25T18:16:07;7.80;99.90
6307;DHT22;3186;54.062;9.962;2022-11-25T18:18:33;7.80;99.90
6307;DHT22;3186;54.062;9.962;2022-11-25T18:20:59;7.80;99.90
6307;DHT22;3186;54.062;9.962;2022-11-25T18:23:24;7.80;99.90
6307;DHT22;3186;54.062;9.962;2022-11-25T18:25:51;7.80;99.90
6307;DHT22;3186;54.062;9.962;2022-11-25T18:28:21;7.80;99.90
6307;DHT22;3186;54.062;9.962;2022-11-25T18:30:48;7.80;99.90
6307;DHT22;3186;54.062;9.962;2022-11-25T18:33:17;7.80;99.90
6307;DHT22;3186;54.062;9.962;2022-11-25T18:35:44;7.70;99.90
6307;DHT22;3186;54.062;9.962;2022-11-25T18:38:10;7.80;99.90
6307;DHT22;3186;54.062;9.962;2022-11-25T18:40:38;7.70;99.90
6307;DHT22;3186;54.062;9.962;2022-11-25T18:43:08;7.80;99.90
6307;DHT22;3186;54.062;9.962;2022-11-25T18:45:37;7.80;99.90
6307;DHT22;3186;54.062;9.962;2022-11-25T18:48:22;7.80;99.90
6307;DHT22;3186;54.062;9.962;2022-11-25T18:50:51;7.80;99.90
6307;DHT22;3186;54.062;9.962;2022-11-25T18:53:18;7.80;99.90
6307;DHT22;3186;54.062;9.962;2022-11-25T18:55:44;7.80;99.90
6307;DHT22;3186;54.062;9.962;2022-11-25T18:58:20;7.80;99.90
6307;DHT22;3186;54.062;9.962;2022-11-25T19:00:48;7.80;99.90
6307;DHT22;3186;54.062;9.962;2022-11-25T19:03:20;7.80;99.90
6307;DHT22;3186;54.062;9.962;2022-11-25T19:05:46;7.80;99.90
6307;DHT22;3186;54.062;9.962;2022-11-25T19:08:12;7.80;99.90
6307;DHT22;3186;54.062;9.962;2022-11-25T19:10:39;7.80;99.90
6307;DHT22;3186;54.062;9.962;2022-11-25T19:13:30;7.70;99.90
6307;DHT22;3186;54.062;9.962;2022-11-25T19:16:03;7.70;99.90
6307;DHT22;3186;54.062;9.962;2022-11-25T19:18:30;7.70;99.90
6307;DHT22;3186;54.062;9.962;2022-11-25T19:20:56;7.70;99.90
6307;DHT22;3186;54.062;9.962;2022-11-25T19:23:24;7.80;99.90